sensor_id;sensor_type;location;lat;lon;timestamp;temperature;humidity
37285;DHT22;23172;53.550;9.964;2023-07-31T00:04:35;20.00;90.10
37285;DHT22;23172;53.550;9.964;2023-07-31T00:09:38;20.10;89.10
37285;DHT22;23172;53.550;9.964;2023-07-31T00:14:40;20.00;88.10
37285;DHT22;23172;53.550;9.964;2023-07-31T00:19:42;20.10;87.50
37285;DHT22;23172;53.550;9.964;2023-07-31T00:24:47;20.10;86.00
37285;DHT22;23172;53.550;9.964;2023-07-31T00:29:49;20.20;85.40
37285;DHT22;23172;53.550;9.964;2023-07-31T00:34:52;20.20;84.20
37285;DHT22;23172;53.550;9.964;2023-07-31T00:39:55;20.00;83.90
37285;DHT22;23172;53.550;9.964;2023-07-31T00:44:57;19.90;84.10
37285;DHT22;23172;53.550;9.964;2023-07-31T00:49:59;19.90;84.10
37285;DHT22;23172;53.550;9.964;2023-07-31T00:55:03;19.90;85.40
37285;DHT22;23172;53.550;9.964;2023-07-31T01:00:06;19.90;85.10
37285;DHT22;23172;53.550;9.964;2023-07-31T01:05:09;20.00;85.00
37285;DHT22;23172;53.550;9.964;2023-07-31T01:10:28;20.00;85.80
37285;DHT22;23172;53.550;9.964;2023-07-31T01:15:32;19.90;86.20
37285;DHT22;23172;53.550;9.964;2023-07-31T01:20:35;19.80;87.60
37285;DHT22;23172;53.550;9.964;2023-07-31T01:26:05;19.70;89.60
37285;DHT22;23172;53.550;9.964;2023-07-31T01:31:14;19.60;90.30
37285;DHT22;23172;53.550;9.964;2023-07-31T01:36:17;19.60;90.80
37285;DHT22;23172;53.550;9.964;2023-07-31T01:41:21;19.70;91.10
37285;DHT22;23172;53.550;9.964;2023-07-31T01:46:22;19.80;91.20
37285;DHT22;23172;53.550;9.964;2023-07-31T01:51:24;19.70;91.50
37285;DHT22;23172;53.550;9.964;2023-07-31T01:56:28;19.80;91.60
37285;DHT22;23172;53.550;9.964;2023-07-31T02:01:29;19.80;91.70
37285;DHT22;23172;53.550;9.964;2023-07-31T02:06:31;19.70;92.00
37285;DHT22;23172;53.550;9.964;2023-07-31T02:11:34;19.70;92.10
37285;DHT22;23172;53.550;9.964;2023-07-31T02:16:36;19.70;92.40
37285;DHT22;23172;53.550;9.964;2023-07-31T02:21:38;19.70;92.50
37285;DHT22;23172;53.550;9.964;2023-07-31T02:26:41;19.70;92.70
37285;DHT22;23172;53.550;9.964;2023-07-31T02:31:43;19.70;92.70
37285;DHT22;23172;53.550;9.964;2023-07-31T02:36:45;19.60;92.80
37285;DHT22;23172;53.550;9.964;2023-07-31T02:41:48;19.70;93.00
37285;DHT22;23172;53.550;9.964;2023-07-31T02:46:50;19.70;93.10
37285;DHT22;23172;53.550;9.964;2023-07-31T02:51:52;19.70;93.00
37285;DHT22;23172;53.550;9.964;2023-07-31T02:56:55;19.60;93.50
37285;DHT22;23172;53.550;9.964;2023-07-31T03:01:57;19.70;93.50
37285;DHT22;23172;53.550;9.964;2023-07-31T03:06:59;19.60;94.00
37285;DHT22;23172;53.550;9.964;2023-07-31T03:12:02;19.60;94.00
37285;DHT22;23172;53.550;9.964;2023-07-31T03:17:04;19.60;94.10
37285;DHT22;23172;53.550;9.964;2023-07-31T03:22:06;19.60;94.30
37285;DHT22;23172;53.550;9.964;2023-07-31T03:27:09;19.60;94.40
37285;DHT22;23172;53.550;9.964;2023-07-31T03:32:11;19.60;94.50
37285;DHT22;23172;53.550;9.964;2023-07-31T03:37:13;19.60;94.50
37285;DHT22;23172;53.550;9.964;2023-07-31T03:42:16;19.60;94.60
37285;DHT22;23172;53.550;9.964;2023-07-31T03:47:18;19.60;94.40
37285;DHT22;23172;53.550;9.964;2023-07-31T03:52:20;19.60;94.50
37285;DHT22;23172;53.550;9.964;2023-07-31T03:57:23;19.70;94.50
37285;DHT22;23172;53.550;9.964;2023-07-31T04:02:25;19.70;94.80
37285;DHT22;23172;53.550;9.964;2023-07-31T04:07:27;19.70;94.70
37285;DHT22;23172;53.550;9.964;2023-07-31T04:12:30;19.60;94.70
37285;DHT22;23172;53.550;9.964;2023-07-31T04:17:32;19.70;94.70
37285;DHT22;23172;53.550;9.964;2023-07-31T04:22:33;19.70;94.70
37285;DHT22;23172;53.550;9.964;2023-07-31T04:27:37;19.70;94.90
37285;DHT22;23172;53.550;9.964;2023-07-31T04:32:40;19.70;95.30
37285;DHT22;23172;53.550;9.964;2023-07-31T04:37:41;19.70;95.70
37285;DHT22;23172;53.550;9.964;2023-07-31T04:42:46;19.70;95.70
37285;DHT22;23172;53.550;9.964;2023-07-31T04:47:48;19.70;96.00
37285;DHT22;23172;53.550;9.964;2023-07-31T05:07:58;19.70;96.30
37285;DHT22;23172;53.550;9.964;2023-07-31T05:13:01;19.60;96.80
37285;DHT22;23172;53.550;9.964;2023-07-31T05:18:03;19.60;97.30
37285;DHT22;23172;53.550;9.964;2023-07-31T05:23:05;19.60;97.10
37285;DHT22;23172;53.550;9.964;2023-07-31T05:28:08;19.50;97.00
37285;DHT22;23172;53.550;9.964;2023-07-31T05:33:10;19.50;97.10
37285;DHT22;23172;53.550;9.964;2023-07-31T05:38:12;19.50;97.40
37285;DHT22;23172;53.550;9.964;2023-07-31T05:43:15;19.50;97.20
37285;DHT22;23172;53.550;9.964;2023-07-31T05:48:17;19.50;97.40
37285;DHT22;23172;53.550;9.964;2023-07-31T05:53:18;19.60;97.20
37285;DHT22;23172;53.550;9.964;2023-07-31T05:58:22;19.60;97.20
37285;DHT22;23172;53.550;9.964;2023-07-31T06:03:23;19.60;97.20
37285;DHT22;23172;53.550;9.964;2023-07-31T06:08:25;19.70;97.10
37285;DHT22;23172;53.550;9.964;2023-07-31T06:13:28;19.80;97.00
37285;DHT22;23172;53.550;9.964;2023-07-31T06:18:30;19.80;97.10
37285;DHT22;23172;53.550;9.964;2023-07-31T06:23:32;19.90;97.20
37285;DHT22;23172;53.550;9.964;2023-07-31T06:28:35;19.90;97.20
37285;DHT22;23172;53.550;9.964;2023-07-31T06:33:37;19.80;97.30
37285;DHT22;23172;53.550;9.964;2023-07-31T06:38:39;19.90;97.00
37285;DHT22;23172;53.550;9.964;2023-07-31T06:43:42;19.90;97.40
37285;DHT22;23172;53.550;9.964;2023-07-31T06:48:44;19.90;97.10
37285;DHT22;23172;53.550;9.964;2023-07-31T06:53:46;20.00;96.80
37285;DHT22;23172;53.550;9.964;2023-07-31T06:58:49;20.00;97.00
37285;DHT22;23172;53.550;9.964;2023-07-31T07:03:51;20.10;96.80
37285;DHT22;23172;53.550;9.964;2023-07-31T07:08:53;20.10;96.60
37285;DHT22;23172;53.550;9.964;2023-07-31T07:13:56;20.00;97.00
